Time;durP1;ratioP1;P1;durP2;ratioP2;P2;SDS_P1;SDS_P2;PMS_P1;PMS_P2;Temp;Humidity;BMP_temperature;BMP_pressure;BME280_temperature;BME280_humidity;BME280_pressure;Samples;Min_cycle;Max_cycle;Signal;HPM_P1;HPM_P2
2022/07/08 00:01:21;;;;;;;4.78;1.75;;;;;;;;;;5047861;28;20029;-68
2022/07/08 00:03:47;;;;;;;2.38;1.30;;;;;;;;;;5047662;28;20046;-68
2022/07/08 00:06:12;;;;;;;3.63;1.60;;;;;;;;;;5048421;28;20556;-68
2022/07/08 00:08:38;;;;;;;4.53;1.55;;;;;;;;;;5044914;28;20037;-68
2022/07/08 00:11:03;;;;;;;3.58;2.00;;;;;;;;;;5047780;28;20043;-68
2022/07/08 00:13:28;;;;;;;6.82;1.60;;;;;;;;;;5028321;28;20025;-68
2022/07/08 00:15:54;;;;;;;2.47;1.40;;;;;;;;;;5028167;28;20091;-68
2022/07/08 00:18:19;;;;;;;7.65;2.10;;;;;;;;;;5039057;28;20033;-68
2022/07/08 00:20:45;;;;;;;4.65;1.70;;;;;;;;;;5047657;28;20103;-68
2022/07/08 00:23:10;;;;;;;3.78;1.65;;;;;;;;;;5044960;28;20106;-68
2022/07/08 00:25:35;;;;;;;4.18;1.90;;;;;;;;;;5046105;28;20033;-68
2022/07/08 00:28:01;;;;;;;8.05;1.80;;;;;;;;;;5041742;28;20040;-68
2022/07/08 00:30:27;;;;;;;5.47;1.73;;;;;;;;;;5048202;28;20112;-68
2022/07/08 00:32:52;;;;;;;6.55;1.73;;;;;;;;;;5047452;28;20037;-68
2022/07/08 00:35:17;;;;;;;5.20;1.67;;;;;;;;;;5047678;28;20035;-68
2022/07/08 00:37:43;;;;;;;2.67;1.50;;;;;;;;;;5048727;28;20048;-68
2022/07/08 00:40:09;;;;;;;3.63;1.60;;;;;;;;;;5051533;28;20056;-69
2022/07/08 00:42:34;;;;;;;6.90;1.90;;;;;;;;;;5050204;28;20032;-68
2022/07/08 00:44:59;;;;;;;3.20;1.65;;;;;;;;;;5035200;28;20017;-68
2022/07/08 00:47:25;;;;;;;3.88;1.50;;;;;;;;;;5049765;28;20033;-68
2022/07/08 00:49:50;;;;;;;5.72;1.65;;;;;;;;;;5051444;28;20500;-68
2022/07/08 00:52:16;;;;;;;9.95;2.28;;;;;;;;;;5034437;28;20044;-68
2022/07/08 00:54:41;;;;;;;7.43;2.00;;;;;;;;;;5033103;28;20451;-68
2022/07/08 00:57:07;;;;;;;3.13;1.60;;;;;;;;;;5051995;28;20039;-68
2022/07/08 00:59:32;;;;;;;4.22;1.58;;;;;;;;;;5050909;28;20036;-68
2022/07/08 01:01:58;;;;;;;9.65;1.85;;;;;;;;;;5051218;28;20048;-69
2022/07/08 01:04:24;;;;;;;4.55;1.60;;;;;;;;;;5048043;28;20040;-68
2022/07/08 01:06:49;;;;;;;3.90;1.60;;;;;;;;;;5048900;28;20432;-68
2022/07/08 01:09:15;;;;;;;6.28;1.90;;;;;;;;;;5051047;28;20025;-68
2022/07/08 01:11:45;;;;;;;4.78;1.60;;;;;;;;;;5050945;28;20507;-68
2022/07/08 01:14:12;;;;;;;6.07;1.70;;;;;;;;;;5050843;28;20594;-68
2022/07/08 01:16:37;;;;;;;10.23;2.00;;;;;;;;;;5050775;28;20071;-68
2022/07/08 01:19:03;;;;;;;6.13;1.85;;;;;;;;;;5041859;28;20064;-68
2022/07/08 01:21:28;;;;;;;6.32;1.80;;;;;;;;;;5031250;28;20025;-68
2022/07/08 01:23:53;;;;;;;4.63;1.80;;;;;;;;;;5031498;28;20029;-68
2022/07/08 01:26:19;;;;;;;5.90;2.30;;;;;;;;;;5037340;28;20111;-68
2022/07/08 01:28:44;;;;;;;8.65;1.90;;;;;;;;;;5049409;28;20067;-68
2022/07/08 01:31:10;;;;;;;2.72;1.52;;;;;;;;;;5050620;28;20037;-68
2022/07/08 01:33:35;;;;;;;4.50;1.60;;;;;;;;;;5046788;28;20163;-69
2022/07/08 01:36:00;;;;;;;5.22;1.80;;;;;;;;;;5049169;28;20063;-68
2022/07/08 01:38:26;;;;;;;3.80;1.90;;;;;;;;;;5043785;28;20152;-68
2022/07/08 01:40:51;;;;;;;4.65;1.75;;;;;;;;;;5050090;28;20029;-68
2022/07/08 01:43:17;;;;;;;6.75;1.70;;;;;;;;;;5036014;28;20087;-68
2022/07/08 01:45:43;;;;;;;4.10;1.60;;;;;;;;;;5050428;28;20388;-68
2022/07/08 01:48:08;;;;;;;3.63;1.48;;;;;;;;;;5048226;28;20029;-68
2022/07/08 01:50:33;;;;;;;3.22;1.95;;;;;;;;;;5049383;28;20605;-68
2022/07/08 01:52:59;;;;;;;4.40;1.90;;;;;;;;;;5050674;28;20037;-68
2022/07/08 01:55:25;;;;;;;2.83;1.80;;;;;;;;;;5050298;28;20034;-68
2022/07/08 01:57:50;;;;;;;6.78;2.03;;;;;;;;;;5036009;28;20037;-68
2022/07/08 02:00:16;;;;;;;4.22;1.70;;;;;;;;;;5032232;28;20112;-68
2022/07/08 02:02:41;;;;;;;7.30;1.67;;;;;;;;;;5050215;28;20044;-68
2022/07/08 02:05:09;;;;;;;5.70;1.95;;;;;;;;;;5049992;28;20033;-68
2022/07/08 02:07:34;;;;;;;4.85;1.75;;;;;;;;;;5048375;28;20542;-68
2022/07/08 02:10:00;;;;;;;4.18;1.67;;;;;;;;;;5030451;28;20030;-68
2022/07/08 02:12:25;;;;;;;5.10;2.10;;;;;;;;;;5036463;28;20032;-68
2022/07/08 02:15:01;;;;;;;6.28;1.65;;;;;;;;;;5045375;28;20041;-68
2022/07/08 02:17:27;;;;;;;3.95;1.63;;;;;;;;;;5032780;28;20037;-68
2022/07/08 02:19:53;;;;;;;5.95;1.77;;;;;;;;;;5047408;28;20037;-68
2022/07/08 02:22:18;;;;;;;3.97;1.80;;;;;;;;;;5049317;28;20036;-68
2022/07/08 02:24:43;;;;;;;2.65;1.50;;;;;;;;;;5050276;28;20044;-68
2022/07/08 02:27:09;;;;;;;5.60;1.50;;;;;;;;;;5044945;28;20491;-68
2022/07/08 02:29:34;;;;;;;8.57;1.77;;;;;;;;;;5050102;28;20037;-68
2022/07/08 02:32:00;;;;;;;3.30;1.70;;;;;;;;;;5049441;28;20114;-68
2022/07/08 02:34:26;;;;;;;2.75;1.75;;;;;;;;;;5049510;28;20037;-68
2022/07/08 02:36:52;;;;;;;2.00;1.60;;;;;;;;;;5049562;28;20412;-68
2022/07/08 02:39:18;;;;;;;2.85;1.60;;;;;;;;;;5033298;28;20033;-68
2022/07/08 02:41:44;;;;;;;5.82;2.05;;;;;;;;;;5043618;28;20036;-68
2022/07/08 02:44:09;;;;;;;2.33;1.60;;;;;;;;;;5038833;28;20113;-68
2022/07/08 02:46:35;;;;;;;3.70;1.95;;;;;;;;;;5041735;28;20036;-68
2022/07/08 02:49:01;;;;;;;3.75;1.98;;;;;;;;;;5027971;28;20057;-67
2022/07/08 02:51:27;;;;;;;2.15;1.60;;;;;;;;;;5037881;28;20475;-68
2022/07/08 02:53:52;;;;;;;2.97;1.80;;;;;;;;;;5049191;28;20136;-68
2022/07/08 02:56:17;;;;;;;4.22;1.85;;;;;;;;;;5048218;28;20103;-68
2022/07/08 02:58:43;;;;;;;3.75;2.00;;;;;;;;;;5041828;28;20091;-68
2022/07/08 03:01:08;;;;;;;2.72;1.70;;;;;;;;;;5049416;28;20029;-68
2022/07/08 03:03:34;;;;;;;2.83;1.58;;;;;;;;;;5048801;28;20056;-68
2022/07/08 03:05:59;;;;;;;6.25;1.92;;;;;;;;;;5047682;28;20044;-68
2022/07/08 03:08:25;;;;;;;5.07;1.90;;;;;;;;;;5045011;28;20124;-68
2022/07/08 03:10:50;;;;;;;3.75;1.67;;;;;;;;;;5049297;28;20463;-68
2022/07/08 03:13:16;;;;;;;3.55;1.60;;;;;;;;;;5046606;28;20508;-68
2022/07/08 03:15:41;;;;;;;4.15;1.75;;;;;;;;;;5048889;28;20021;-68
2022/07/08 03:18:07;;;;;;;3.30;1.92;;;;;;;;;;5048961;28;20117;-67
2022/07/08 03:20:32;;;;;;;2.50;1.73;;;;;;;;;;5034996;28;20033;-68
2022/07/08 03:22:58;;;;;;;2.83;1.60;;;;;;;;;;5047695;28;20029;-68
2022/07/08 03:25:24;;;;;;;2.58;1.63;;;;;;;;;;5048575;28;20029;-68
2022/07/08 03:27:49;;;;;;;6.03;1.65;;;;;;;;;;5048421;28;20511;-68
2022/07/08 03:30:14;;;;;;;4.30;1.70;;;;;;;;;;5048826;28;20021;-68
2022/07/08 03:32:40;;;;;;;7.80;1.70;;;;;;;;;;5048840;28;20523;-68
2022/07/08 03:35:06;;;;;;;3.83;1.73;;;;;;;;;;5046370;28;20033;-68
2022/07/08 03:37:31;;;;;;;2.55;1.70;;;;;;;;;;5046631;28;20056;-68
2022/07/08 03:41:19;;;;;;;3.42;1.50;;;;;;;;;;5048268;28;20419;-68
2022/07/08 03:42:42;;;;;;;2.83;1.75;;;;;;;;;;5047690;28;20518;-68
2022/07/08 03:45:07;;;;;;;2.78;2.03;;;;;;;;;;5029591;28;20025;-68
2022/07/08 03:47:34;;;;;;;5.93;1.83;;;;;;;;;;5039692;28;20033;-68
2022/07/08 03:50:00;;;;;;;4.13;1.98;;;;;;;;;;5036089;28;20033;-67
2022/07/08 03:52:25;;;;;;;7.05;2.08;;;;;;;;;;5026418;28;20037;-67
2022/07/08 03:54:50;;;;;;;11.18;2.40;;;;;;;;;;5027947;28;20033;-68
2022/07/08 03:57:17;;;;;;;5.40;1.88;;;;;;;;;;5038311;28;20086;-67
2022/07/08 03:59:42;;;;;;;7.47;2.13;;;;;;;;;;5047932;28;20041;-68
2022/07/08 04:02:07;;;;;;;3.95;2.20;;;;;;;;;;5048072;28;20029;-68
2022/07/08 04:04:33;;;;;;;5.18;2.05;;;;;;;;;;5047695;28;20033;-67
2022/07/08 04:06:58;;;;;;;7.32;2.28;;;;;;;;;;5047987;28;20116;-67
2022/07/08 04:09:23;;;;;;;4.90;2.20;;;;;;;;;;5048005;28;20039;-67
2022/07/08 04:11:49;;;;;;;4.82;2.40;;;;;;;;;;5048061;28;20036;-68
2022/07/08 04:14:14;;;;;;;3.53;1.88;;;;;;;;;;5046426;28;20040;-67
2022/07/08 04:16:40;;;;;;;5.60;2.10;;;;;;;;;;5047947;28;20091;-68
2022/07/08 04:19:05;;;;;;;4.95;2.00;;;;;;;;;;5045228;28;20039;-67
2022/07/08 04:21:30;;;;;;;7.57;2.17;;;;;;;;;;5046526;28;20086;-67
2022/07/08 04:23:58;;;;;;;7.70;2.20;;;;;;;;;;5048432;28;20021;-68
2022/07/08 04:26:28;;;;;;;5.93;2.22;;;;;;;;;;5047698;28;20047;-67
2022/07/08 04:28:53;;;;;;;2.58;1.75;;;;;;;;;;5047442;28;20041;-67
2022/07/08 04:31:19;;;;;;;3.20;1.88;;;;;;;;;;5035729;28;20034;-68
2022/07/08 04:33:44;;;;;;;5.95;1.98;;;;;;;;;;5028374;28;20033;-68
2022/07/08 04:36:09;;;;;;;5.15;2.35;;;;;;;;;;5044475;28;20423;-68
2022/07/08 04:38:35;;;;;;;6.43;2.10;;;;;;;;;;5045957;28;20416;-68
2022/07/08 04:41:00;;;;;;;3.58;2.05;;;;;;;;;;5047158;28;20040;-68
2022/07/08 04:43:25;;;;;;;8.75;2.60;;;;;;;;;;5045967;28;20064;-68
2022/07/08 04:45:51;;;;;;;4.88;2.10;;;;;;;;;;5045310;28;20033;-68
2022/07/08 04:48:16;;;;;;;5.70;2.20;;;;;;;;;;5048243;28;20052;-68
2022/07/08 04:50:41;;;;;;;5.65;1.98;;;;;;;;;;5046508;28;20048;-68
2022/07/08 04:53:07;;;;;;;3.83;2.10;;;;;;;;;;5047625;28;20107;-68
2022/07/08 04:55:32;;;;;;;5.68;2.20;;;;;;;;;;5047172;28;20044;-68
2022/07/08 04:58:00;;;;;;;5.60;2.00;;;;;;;;;;5046250;28;20071;-68
2022/07/08 05:00:26;;;;;;;4.75;2.17;;;;;;;;;;5047855;28;20100;-68
2022/07/08 05:02:51;;;;;;;5.93;2.40;;;;;;;;;;5047085;28;20116;-68
2022/07/08 05:05:18;;;;;;;10.20;2.33;;;;;;;;;;5047217;28;20222;-68
2022/07/08 05:07:43;;;;;;;4.80;2.17;;;;;;;;;;5047376;28;20041;-68
2022/07/08 05:10:09;;;;;;;9.65;2.83;;;;;;;;;;5046928;28;20033;-67
2022/07/08 05:12:34;;;;;;;3.75;2.05;;;;;;;;;;5045944;28;20028;-68
2022/07/08 05:14:59;;;;;;;8.00;2.45;;;;;;;;;;5048034;28;20117;-68
2022/07/08 05:17:25;;;;;;;9.95;2.78;;;;;;;;;;5046850;28;20037;-68
2022/07/08 05:19:50;;;;;;;7.30;2.50;;;;;;;;;;5047672;28;20094;-68
2022/07/08 05:22:15;;;;;;;5.25;2.67;;;;;;;;;;5047233;28;20031;-68
2022/07/08 05:24:41;;;;;;;5.88;2.92;;;;;;;;;;5046027;28;20025;-68
2022/07/08 05:27:06;;;;;;;10.20;2.90;;;;;;;;;;5041725;28;20025;-68
2022/07/08 05:29:32;;;;;;;8.73;3.05;;;;;;;;;;5031311;28;20155;-68
2022/07/08 05:31:57;;;;;;;7.50;2.50;;;;;;;;;;5030925;28;20401;-68
2022/07/08 05:34:23;;;;;;;8.40;2.90;;;;;;;;;;5036650;28;20064;-68
2022/07/08 05:36:49;;;;;;;12.90;3.30;;;;;;;;;;5051335;28;20016;-68
2022/07/08 05:39:14;;;;;;;7.95;3.40;;;;;;;;;;5049352;28;20020;-68
2022/07/08 05:41:39;;;;;;;5.35;2.55;;;;;;;;;;5050160;28;20025;-68
2022/07/08 05:44:05;;;;;;;11.15;2.92;;;;;;;;;;5050863;28;20029;-67
2022/07/08 05:46:30;;;;;;;10.80;3.20;;;;;;;;;;5048265;28;20574;-67
2022/07/08 05:48:55;;;;;;;10.48;4.13;;;;;;;;;;5029063;28;20064;-67
2022/07/08 05:51:21;;;;;;;7.75;3.33;;;;;;;;;;5030545;28;20053;-71
2022/07/08 05:53:47;;;;;;;13.63;3.50;;;;;;;;;;5041535;28;20042;-68
2022/07/08 05:56:12;;;;;;;12.25;3.58;;;;;;;;;;5049759;28;20041;-68
2022/07/08 05:58:38;;;;;;;11.55;3.42;;;;;;;;;;5030140;28;20038;-68
2022/07/08 06:01:03;;;;;;;4.53;2.85;;;;;;;;;;5030194;28;20060;-67
2022/07/08 06:03:29;;;;;;;12.32;3.78;;;;;;;;;;5044689;28;20107;-68
2022/07/08 06:05:54;;;;;;;6.93;2.97;;;;;;;;;;5040373;28;20513;-68
2022/07/08 06:08:19;;;;;;;12.00;3.10;;;;;;;;;;5041840;28;20561;-68
2022/07/08 06:10:45;;;;;;;9.45;3.50;;;;;;;;;;5037678;28;20575;-68
2022/07/08 06:13:10;;;;;;;10.02;3.60;;;;;;;;;;5042486;28;20052;-67
2022/07/08 06:15:35;;;;;;;12.43;3.10;;;;;;;;;;5046361;28;20033;-68
2022/07/08 06:18:01;;;;;;;11.20;3.15;;;;;;;;;;5042384;28;20031;-68
2022/07/08 06:20:26;;;;;;;9.95;3.25;;;;;;;;;;5037471;28;20593;-68
2022/07/08 06:22:51;;;;;;;12.95;3.60;;;;;;;;;;5044020;28;20911;-67
2022/07/08 06:25:17;;;;;;;7.65;2.90;;;;;;;;;;5043868;28;20440;-67
2022/07/08 06:27:42;;;;;;;7.47;2.88;;;;;;;;;;5039328;28;20029;-67
2022/07/08 06:30:08;;;;;;;14.07;3.22;;;;;;;;;;5042678;28;20151;-67
2022/07/08 06:32:33;;;;;;;8.30;3.10;;;;;;;;;;5045074;28;20075;-67
2022/07/08 06:34:58;;;;;;;15.15;3.60;;;;;;;;;;5042743;28;20819;-67
2022/07/08 06:37:24;;;;;;;10.20;3.00;;;;;;;;;;5027338;28;20034;-67
2022/07/08 06:39:49;;;;;;;16.65;3.20;;;;;;;;;;5028054;28;20048;-67
2022/07/08 06:42:16;;;;;;;9.25;2.80;;;;;;;;;;5028049;28;20136;-67
2022/07/08 06:44:41;;;;;;;11.32;3.58;;;;;;;;;;5041184;28;20036;-67
2022/07/08 06:47:07;;;;;;;9.13;2.50;;;;;;;;;;5047758;28;20123;-67
2022/07/08 06:49:32;;;;;;;7.80;3.20;;;;;;;;;;5047879;28;20029;-67
2022/07/08 06:51:58;;;;;;;8.48;2.80;;;;;;;;;;5043498;28;20452;-67
2022/07/08 06:54:35;;;;;;;8.05;2.50;;;;;;;;;;5045996;28;20628;-67
2022/07/08 06:57:02;;;;;;;9.77;2.88;;;;;;;;;;5039867;28;20061;-67
2022/07/08 06:59:28;;;;;;;9.88;2.65;;;;;;;;;;5042601;28;20431;-67
2022/07/08 07:01:53;;;;;;;8.57;2.75;;;;;;;;;;5036536;28;21385;-67
2022/07/08 07:04:19;;;;;;;5.07;2.15;;;;;;;;;;5039425;28;20112;-68
2022/07/08 07:06:44;;;;;;;7.72;1.88;;;;;;;;;;5038910;28;20049;-67
2022/07/08 07:09:10;;;;;;;6.53;2.30;;;;;;;;;;5040914;28;20118;-67
2022/07/08 07:11:38;;;;;;;8.50;2.42;;;;;;;;;;5041098;28;20416;-67
2022/07/08 07:14:03;;;;;;;7.60;2.20;;;;;;;;;;5037852;28;20033;-67
2022/07/08 07:16:29;;;;;;;4.70;2.08;;;;;;;;;;5040426;28;20040;-67
2022/07/08 07:18:54;;;;;;;11.23;2.90;;;;;;;;;;5036243;28;20041;-67
2022/07/08 07:21:19;;;;;;;12.05;2.75;;;;;;;;;;5028554;28;20029;-67
2022/07/08 07:23:45;;;;;;;9.40;2.40;;;;;;;;;;5047254;28;20028;-67
2022/07/08 07:26:10;;;;;;;11.60;2.53;;;;;;;;;;5038755;28;20037;-67
2022/07/08 07:28:35;;;;;;;5.40;2.40;;;;;;;;;;5040382;28;20051;-67
2022/07/08 07:31:01;;;;;;;8.68;2.40;;;;;;;;;;5042655;28;20037;-67
2022/07/08 07:33:26;;;;;;;13.40;3.15;;;;;;;;;;5039708;28;20289;-67
2022/07/08 07:35:52;;;;;;;5.50;2.40;;;;;;;;;;5038125;28;20585;-67
2022/07/08 07:38:17;;;;;;;8.63;2.45;;;;;;;;;;5036544;28;20037;-67
2022/07/08 07:40:43;;;;;;;10.25;2.58;;;;;;;;;;5038220;28;20048;-67
2022/07/08 07:43:08;;;;;;;9.88;2.70;;;;;;;;;;5041165;28;20546;-68
2022/07/08 07:45:33;;;;;;;6.53;2.38;;;;;;;;;;5035916;28;20079;-68
2022/07/08 07:47:59;;;;;;;5.13;2.13;;;;;;;;;;5040109;28;20029;-67
2022/07/08 07:50:26;;;;;;;10.52;3.10;;;;;;;;;;5027197;28;20712;-67
2022/07/08 07:52:52;;;;;;;8.95;2.30;;;;;;;;;;5027187;28;20068;-67
2022/07/08 07:55:17;;;;;;;12.02;2.72;;;;;;;;;;5036486;28;20065;-66
2022/07/08 07:57:45;;;;;;;12.43;2.63;;;;;;;;;;5039817;28;20064;-66
2022/07/08 08:00:11;;;;;;;5.60;2.67;;;;;;;;;;5042540;28;20036;-68
2022/07/08 08:02:37;;;;;;;9.10;2.50;;;;;;;;;;5045567;28;20037;-67
2022/07/08 08:05:03;;;;;;;8.40;2.70;;;;;;;;;;5045006;28;20033;-67
2022/07/08 08:07:28;;;;;;;4.22;2.25;;;;;;;;;;5034270;28;20045;-67
2022/07/08 08:09:54;;;;;;;6.38;2.20;;;;;;;;;;5038015;28;20040;-68
2022/07/08 08:12:19;;;;;;;11.02;2.35;;;;;;;;;;5037982;28;20024;-68
2022/07/08 08:14:45;;;;;;;11.77;2.38;;;;;;;;;;5027253;28;20091;-67
2022/07/08 08:17:10;;;;;;;11.88;2.33;;;;;;;;;;5027664;28;20034;-68
2022/07/08 08:19:36;;;;;;;10.65;2.45;;;;;;;;;;5027440;28;20649;-67
2022/07/08 08:22:01;;;;;;;8.10;2.47;;;;;;;;;;5037419;28;20037;-67
2022/07/08 08:24:26;;;;;;;11.25;2.53;;;;;;;;;;5042747;28;20032;-67
2022/07/08 08:26:52;;;;;;;7.35;2.30;;;;;;;;;;5046109;28;20591;-67
2022/07/08 08:29:17;;;;;;;9.45;2.35;;;;;;;;;;5044082;28;20449;-68
2022/07/08 08:31:42;;;;;;;8.45;2.10;;;;;;;;;;5030518;28;20037;-67
2022/07/08 08:34:08;;;;;;;9.70;2.90;;;;;;;;;;5026657;28;20187;-67
2022/07/08 08:36:34;;;;;;;6.32;2.30;;;;;;;;;;5039068;28;20056;-68
2022/07/08 08:39:00;;;;;;;3.65;1.77;;;;;;;;;;5044970;28;20044;-67
2022/07/08 08:41:26;;;;;;;8.88;2.67;;;;;;;;;;5041669;28;20515;-67
2022/07/08 08:43:52;;;;;;;4.75;1.88;;;;;;;;;;5033301;28;20072;-67
2022/07/08 08:46:23;;;;;;;5.75;1.67;;;;;;;;;;5041070;28;20404;-67
2022/07/08 08:48:51;;;;;;;5.85;1.90;;;;;;;;;;5040418;28;20496;-68
2022/07/08 08:51:20;;;;;;;7.00;2.05;;;;;;;;;;5041549;28;20123;-68
2022/07/08 08:53:47;;;;;;;8.95;1.48;;;;;;;;;;5042675;28;20051;-68
2022/07/08 08:56:13;;;;;;;5.03;1.80;;;;;;;;;;5046700;28;20045;-68
2022/07/08 08:58:46;;;;;;;10.25;1.83;;;;;;;;;;5047185;28;20029;-68
2022/07/08 09:01:13;;;;;;;12.35;2.38;;;;;;;;;;5040748;28;20037;-67
2022/07/08 09:03:38;;;;;;;8.88;2.05;;;;;;;;;;5042004;28;20456;-67
2022/07/08 09:06:04;;;;;;;6.20;2.05;;;;;;;;;;5049287;28;20024;-67
2022/07/08 09:08:30;;;;;;;3.35;1.58;;;;;;;;;;5040225;28;20054;-67
2022/07/08 09:10:56;;;;;;;8.88;1.98;;;;;;;;;;5029812;28;21220;-67
2022/07/08 09:13:25;;;;;;;4.93;1.80;;;;;;;;;;5038667;28;20036;-68
2022/07/08 09:15:55;;;;;;;6.70;1.90;;;;;;;;;;5045480;28;20045;-68
2022/07/08 09:18:22;;;;;;;6.38;1.70;;;;;;;;;;5046257;28;20527;-68
2022/07/08 09:20:52;;;;;;;6.35;1.60;;;;;;;;;;5037184;28;20036;-67
2022/07/08 09:23:21;;;;;;;5.90;1.90;;;;;;;;;;5034202;28;20041;-68
2022/07/08 09:25:49;;;;;;;6.45;1.60;;;;;;;;;;5044067;28;20522;-68
2022/07/08 09:28:31;;;;;;;7.22;1.92;;;;;;;;;;5041147;28;20022;-68
2022/07/08 09:30:57;;;;;;;7.00;1.90;;;;;;;;;;5049745;28;20415;-67
2022/07/08 09:33:27;;;;;;;6.50;1.95;;;;;;;;;;5031675;28;20041;-67
2022/07/08 09:36:00;;;;;;;5.70;1.95;;;;;;;;;;5029012;28;20041;-68
2022/07/08 09:38:27;;;;;;;5.82;1.63;;;;;;;;;;5044679;28;20067;-68
2022/07/08 09:41:02;;;;;;;3.10;1.50;;;;;;;;;;5038813;28;20492;-68
2022/07/08 09:43:27;;;;;;;4.68;1.35;;;;;;;;;;5037812;28;20082;-68
2022/07/08 09:45:53;;;;;;;7.72;1.98;;;;;;;;;;5039936;28;20037;-68
2022/07/08 09:48:19;;;;;;;5.15;1.63;;;;;;;;;;5029874;28;20124;-68
2022/07/08 09:50:48;;;;;;;6.28;1.80;;;;;;;;;;5027499;28;20045;-68
2022/07/08 09:53:26;;;;;;;4.85;1.40;;;;;;;;;;5029745;28;20033;-68
2022/07/08 09:55:53;;;;;;;9.73;2.20;;;;;;;;;;5036716;28;20459;-68
2022/07/08 09:58:21;;;;;;;6.07;1.77;;;;;;;;;;5045046;28;20032;-68
2022/07/08 10:00:48;;;;;;;4.95;1.80;;;;;;;;;;5045290;28;20629;-68
2022/07/08 10:03:14;;;;;;;6.50;1.88;;;;;;;;;;5045640;28;20060;-68
2022/07/08 10:05:40;;;;;;;7.50;1.95;;;;;;;;;;5046027;28;20555;-68
2022/07/08 10:08:07;;;;;;;5.97;1.85;;;;;;;;;;5042998;28;20047;-68
2022/07/08 10:10:33;;;;;;;7.15;1.90;;;;;;;;;;5043300;28;20559;-68
2022/07/08 10:13:00;;;;;;;2.80;1.55;;;;;;;;;;5040522;28;20033;-68
2022/07/08 10:15:27;;;;;;;4.05;1.90;;;;;;;;;;5036864;28;20034;-68
2022/07/08 10:17:54;;;;;;;6.50;1.70;;;;;;;;;;5043785;28;20083;-68
2022/07/08 10:20:22;;;;;;;5.45;1.80;;;;;;;;;;5036167;28;20025;-68
2022/07/08 10:22:52;;;;;;;7.68;1.80;;;;;;;;;;5040319;28;20486;-67
2022/07/08 10:25:19;;;;;;;5.90;1.88;;;;;;;;;;5040456;28;20013;-68
2022/07/08 10:27:45;;;;;;;3.78;1.58;;;;;;;;;;5043535;28;20083;-68
2022/07/08 10:30:18;;;;;;;2.60;1.50;;;;;;;;;;5033101;28;20047;-68
2022/07/08 10:32:47;;;;;;;6.18;1.70;;;;;;;;;;5033864;28;20044;-68
2022/07/08 10:35:18;;;;;;;6.15;1.90;;;;;;;;;;5038654;28;20045;-68
2022/07/08 10:38:01;;;;;;;3.80;1.58;;;;;;;;;;5040831;28;20045;-68
2022/07/08 10:40:41;;;;;;;8.43;1.80;;;;;;;;;;5039004;28;20051;-69
2022/07/08 10:43:19;;;;;;;4.53;1.50;;;;;;;;;;5038902;28;20048;-68
2022/07/08 10:46:03;;;;;;;7.45;1.98;;;;;;;;;;5046796;28;20116;-69
2022/07/08 10:48:44;;;;;;;5.25;1.60;;;;;;;;;;5039210;28;20045;-68
2022/07/08 10:51:19;;;;;;;6.72;1.80;;;;;;;;;;5038199;28;20117;-68
2022/07/08 10:53:51;;;;;;;7.00;1.73;;;;;;;;;;5046493;28;20029;-68
2022/07/08 10:56:54;;;;;;;4.70;2.03;;;;;;;;;;5036059;28;20038;-68
2022/07/08 10:59:20;;;;;;;4.82;1.58;;;;;;;;;;5030494;28;20404;-69
2022/07/08 11:01:59;;;;;;;6.72;1.85;;;;;;;;;;5039294;28;20021;-68
2022/07/08 11:04:31;;;;;;;2.95;1.50;;;;;;;;;;5049135;28;20027;-69
2022/07/08 11:07:24;;;;;;;11.50;2.00;;;;;;;;;;5048207;28;20029;-69
2022/07/08 11:09:50;;;;;;;4.47;1.38;;;;;;;;;;5047582;28;20102;-69
2022/07/08 11:12:20;;;;;;;2.90;1.50;;;;;;;;;;5047487;28;20060;-69
2022/07/08 11:14:47;;;;;;;10.73;1.67;;;;;;;;;;5041030;28;20033;-69
2022/07/08 11:17:16;;;;;;;3.28;1.55;;;;;;;;;;5036847;28;20095;-69
2022/07/08 11:19:46;;;;;;;6.00;1.75;;;;;;;;;;5039830;28;20044;-69
2022/07/08 11:22:12;;;;;;;8.27;1.60;;;;;;;;;;5045228;28;20053;-69
2022/07/08 11:24:38;;;;;;;6.57;1.70;;;;;;;;;;5048074;28;20064;-69
2022/07/08 11:27:04;;;;;;;4.97;1.48;;;;;;;;;;5046582;28;20040;-69
2022/07/08 11:29:30;;;;;;;4.72;1.55;;;;;;;;;;5033937;28;20083;-68
2022/07/08 11:31:56;;;;;;;4.30;1.65;;;;;;;;;;5041558;28;20060;-69
2022/07/08 11:34:24;;;;;;;5.97;1.83;;;;;;;;;;5042005;28;20154;-69
2022/07/08 11:36:54;;;;;;;3.03;1.33;;;;;;;;;;5039478;28;20764;-69
2022/07/08 11:39:19;;;;;;;2.90;1.35;;;;;;;;;;5043039;28;20519;-69
2022/07/08 11:41:44;;;;;;;6.35;1.55;;;;;;;;;;5038838;28;20037;-69
2022/07/08 11:44:11;;;;;;;4.97;1.55;;;;;;;;;;5039275;28;20045;-69
2022/07/08 11:46:44;;;;;;;6.38;1.48;;;;;;;;;;5037855;28;20116;-68
2022/07/08 11:49:10;;;;;;;8.65;1.58;;;;;;;;;;5038030;28;20044;-69
2022/07/08 11:51:35;;;;;;;4.68;2.17;;;;;;;;;;5042383;28;20053;-69
2022/07/08 11:54:00;;;;;;;4.43;1.40;;;;;;;;;;5035180;28;20038;-68
2022/07/08 11:56:26;;;;;;;8.18;1.80;;;;;;;;;;5037573;28;20037;-69
2022/07/08 11:58:52;;;;;;;3.35;2.03;;;;;;;;;;5039202;28;20041;-69
2022/07/08 12:01:20;;;;;;;2.65;1.55;;;;;;;;;;5041041;28;20032;-69
2022/07/08 12:03:45;;;;;;;1.52;1.10;;;;;;;;;;5041620;28;20041;-69
2022/07/08 12:06:11;;;;;;;2.50;1.25;;;;;;;;;;5033883;28;20043;-69
2022/07/08 12:08:43;;;;;;;7.45;1.55;;;;;;;;;;5043426;28;20041;-69
2022/07/08 12:11:18;;;;;;;6.30;1.60;;;;;;;;;;5044962;28;20110;-69
2022/07/08 12:13:49;;;;;;;1.80;1.20;;;;;;;;;;5039363;28;20025;-69
2022/07/08 12:16:34;;;;;;;4.25;1.40;;;;;;;;;;5040647;28;20044;-69
2022/07/08 12:19:04;;;;;;;3.65;1.35;;;;;;;;;;5040771;28;20048;-69
2022/07/08 12:21:30;;;;;;;4.85;1.50;;;;;;;;;;5039343;28;20040;-68
2022/07/08 12:24:04;;;;;;;4.82;1.33;;;;;;;;;;5043614;28;20045;-69
2022/07/08 12:26:30;;;;;;;2.65;1.52;;;;;;;;;;5042050;28;20067;-69
2022/07/08 12:28:56;;;;;;;4.20;1.55;;;;;;;;;;5040135;28;20030;-69
2022/07/08 12:31:33;;;;;;;4.03;1.50;;;;;;;;;;5037205;28;20037;-69
2022/07/08 12:34:02;;;;;;;3.15;1.40;;;;;;;;;;5037997;28;20049;-68
2022/07/08 12:36:28;;;;;;;3.72;1.35;;;;;;;;;;5032606;28;20037;-69
2022/07/08 12:38:57;;;;;;;4.03;1.20;;;;;;;;;;5043528;28;20087;-69
2022/07/08 12:41:22;;;;;;;3.20;1.55;;;;;;;;;;5036616;28;20048;-69
2022/07/08 12:43:47;;;;;;;3.63;1.58;;;;;;;;;;5034625;28;20412;-68
2022/07/08 12:46:13;;;;;;;2.65;1.45;;;;;;;;;;5040948;28;20037;-68
2022/07/08 12:48:39;;;;;;;2.35;1.20;;;;;;;;;;5034187;28;20435;-70
2022/07/08 12:51:06;;;;;;;3.28;1.50;;;;;;;;;;5032343;28;20056;-69
2022/07/08 12:53:32;;;;;;;2.40;1.10;;;;;;;;;;5032707;28;20044;-67
2022/07/08 12:55:57;;;;;;;4.85;1.45;;;;;;;;;;5026563;28;20033;-69
2022/07/08 12:58:24;;;;;;;4.47;1.50;;;;;;;;;;5042685;28;20060;-69
2022/07/08 13:00:52;;;;;;;2.75;1.58;;;;;;;;;;5045695;28;20086;-69
2022/07/08 13:03:18;;;;;;;4.97;1.30;;;;;;;;;;5046737;28;20041;-70
2022/07/08 13:05:43;;;;;;;2.75;1.20;;;;;;;;;;5047273;28;20035;-69
2022/07/08 13:08:09;;;;;;;2.10;1.27;;;;;;;;;;5047517;28;20051;-69
2022/07/08 13:10:35;;;;;;;5.53;1.35;;;;;;;;;;5042345;28;20116;-68
2022/07/08 13:13:06;;;;;;;4.05;1.48;;;;;;;;;;5045479;28;20052;-69
2022/07/08 13:15:33;;;;;;;5.25;1.48;;;;;;;;;;5045202;28;20044;-69
2022/07/08 13:17:58;;;;;;;3.58;1.25;;;;;;;;;;5044266;28;20127;-68
2022/07/08 13:20:23;;;;;;;2.28;1.25;;;;;;;;;;5046720;28;20113;-68
2022/07/08 13:22:49;;;;;;;2.00;1.17;;;;;;;;;;5046916;28;20120;-68
2022/07/08 13:25:14;;;;;;;4.45;1.35;;;;;;;;;;5041518;28;20024;-68
2022/07/08 13:27:41;;;;;;;1.45;1.20;;;;;;;;;;5032647;28;20039;-68
2022/07/08 13:30:07;;;;;;;4.20;1.13;;;;;;;;;;5028520;28;20121;-67
2022/07/08 13:32:33;;;;;;;2.05;1.30;;;;;;;;;;5039319;28;20088;-68
2022/07/08 13:34:58;;;;;;;1.33;1.08;;;;;;;;;;5030511;28;20029;-67
2022/07/08 13:37:23;;;;;;;4.55;1.30;;;;;;;;;;5038716;28;20056;-67
2022/07/08 13:39:49;;;;;;;2.50;1.23;;;;;;;;;;5033761;28;20044;-67
2022/07/08 13:42:14;;;;;;;2.00;0.90;;;;;;;;;;5036789;28;20045;-67
2022/07/08 13:44:40;;;;;;;1.52;1.20;;;;;;;;;;5040941;28;20124;-68
2022/07/08 13:47:05;;;;;;;3.20;1.17;;;;;;;;;;5046228;28;20033;-68
2022/07/08 13:49:31;;;;;;;1.73;1.08;;;;;;;;;;5041454;28;20391;-69
2022/07/08 13:51:56;;;;;;;2.50;1.00;;;;;;;;;;5048381;28;20049;-68
2022/07/08 13:54:23;;;;;;;4.72;1.00;;;;;;;;;;5048985;28;20135;-69
2022/07/08 13:56:48;;;;;;;1.92;0.90;;;;;;;;;;5048745;28;20037;-69
2022/07/08 13:59:14;;;;;;;1.48;1.05;;;;;;;;;;5047373;28;20131;-69
2022/07/08 14:01:39;;;;;;;4.13;1.10;;;;;;;;;;5049175;28;20028;-69
2022/07/08 14:04:04;;;;;;;3.58;1.10;;;;;;;;;;5040891;28;20043;-68
2022/07/08 14:06:30;;;;;;;2.17;0.98;;;;;;;;;;5036833;28;20041;-67
2022/07/08 14:08:57;;;;;;;2.90;1.00;;;;;;;;;;5038781;28;20154;-70
2022/07/08 14:11:22;;;;;;;3.40;1.10;;;;;;;;;;5046724;28;20123;-69
2022/07/08 14:13:47;;;;;;;3.78;1.15;;;;;;;;;;5048468;28;20219;-70
2022/07/08 14:16:13;;;;;;;1.95;1.00;;;;;;;;;;5042823;28;20064;-70
2022/07/08 14:18:39;;;;;;;2.88;1.10;;;;;;;;;;5046217;28;20135;-70
2022/07/08 14:21:04;;;;;;;2.45;0.93;;;;;;;;;;5048125;28;20135;-70
2022/07/08 14:23:33;;;;;;;2.15;1.00;;;;;;;;;;5048182;28;20135;-69
2022/07/08 14:25:58;;;;;;;3.30;1.10;;;;;;;;;;5038109;28;20029;-69
2022/07/08 14:28:25;;;;;;;3.45;1.20;;;;;;;;;;5041034;28;20024;-69
2022/07/08 14:30:53;;;;;;;2.20;1.10;;;;;;;;;;5038175;28;20135;-70
2022/07/08 14:33:18;;;;;;;2.75;1.20;;;;;;;;;;5039164;28;20071;-70
2022/07/08 14:35:44;;;;;;;2.50;1.00;;;;;;;;;;5038841;28;20122;-70
2022/07/08 14:38:09;;;;;;;3.65;1.13;;;;;;;;;;5042024;28;20034;-69